sensor_id;sensor_type;location;lat;lon;timestamp;P1;durP1;ratioP1;P2;durP2;ratioP2
11135;SDS011;5622;50.840;4.948;2023-12-20T00:00:34;12.93;;;2.80;;
11135;SDS011;5622;50.840;4.948;2023-12-20T00:03:02;8.50;;;2.80;;
11135;SDS011;5622;50.840;4.948;2023-12-20T00:05:30;10.40;;;2.87;;
11135;SDS011;5622;50.840;4.948;2023-12-20T00:07:57;3.90;;;2.00;;
11135;SDS011;5622;50.840;4.948;2023-12-20T00:10:26;7.30;;;2.83;;
11135;SDS011;5622;50.840;4.948;2023-12-20T00:12:53;12.80;;;3.10;;
11135;SDS011;5622;50.840;4.948;2023-12-20T00:15:20;11.13;;;3.40;;
11135;SDS011;5622;50.840;4.948;2023-12-20T00:17:47;12.00;;;2.57;;
11135;SDS011;5622;50.840;4.948;2023-12-20T00:20:14;8.70;;;2.50;;
11135;SDS011;5622;50.840;4.948;2023-12-20T00:22:41;11.23;;;2.63;;
11135;SDS011;5622;50.840;4.948;2023-12-20T00:25:08;8.90;;;2.50;;
11135;SDS011;5622;50.840;4.948;2023-12-20T00:27:37;8.87;;;2.80;;
11135;SDS011;5622;50.840;4.948;2023-12-20T00:30:04;9.50;;;2.70;;
11135;SDS011;5622;50.840;4.948;2023-12-20T00:32:32;9.93;;;2.70;;
11135;SDS011;5622;50.840;4.948;2023-12-20T00:34:59;8.27;;;2.27;;
11135;SDS011;5622;50.840;4.948;2023-12-20T00:37:26;12.37;;;3.33;;
11135;SDS011;5622;50.840;4.948;2023-12-20T00:39:53;10.77;;;2.43;;
11135;SDS011;5622;50.840;4.948;2023-12-20T00:42:20;11.23;;;2.90;;
11135;SDS011;5622;50.840;4.948;2023-12-20T00:44:48;9.93;;;2.80;;
11135;SDS011;5622;50.840;4.948;2023-12-20T00:47:15;9.27;;;3.10;;
11135;SDS011;5622;50.840;4.948;2023-12-20T00:49:43;8.70;;;3.43;;
11135;SDS011;5622;50.840;4.948;2023-12-20T00:52:10;11.37;;;2.70;;
11135;SDS011;5622;50.840;4.948;2023-12-20T00:54:37;9.23;;;2.80;;
11135;SDS011;5622;50.840;4.948;2023-12-20T00:57:04;5.87;;;3.10;;
11135;SDS011;5622;50.840;4.948;2023-12-20T00:59:31;13.37;;;3.40;;
11135;SDS011;5622;50.840;4.948;2023-12-20T01:02:00;5.13;;;2.20;;
11135;SDS011;5622;50.840;4.948;2023-12-20T01:04:27;6.30;;;2.63;;
11135;SDS011;5622;50.840;4.948;2023-12-20T01:06:54;10.00;;;3.30;;
11135;SDS011;5622;50.840;4.948;2023-12-20T01:09:21;6.20;;;2.97;;
11135;SDS011;5622;50.840;4.948;2023-12-20T01:11:51;16.63;;;3.60;;
11135;SDS011;5622;50.840;4.948;2023-12-20T01:14:18;9.07;;;2.90;;
11135;SDS011;5622;50.840;4.948;2023-12-20T01:16:45;10.43;;;2.70;;
11135;SDS011;5622;50.840;4.948;2023-12-20T01:19:14;9.47;;;2.77;;
11135;SDS011;5622;50.840;4.948;2023-12-20T01:21:41;6.73;;;2.33;;
11135;SDS011;5622;50.840;4.948;2023-12-20T01:24:08;8.43;;;3.47;;
11135;SDS011;5622;50.840;4.948;2023-12-20T01:26:35;9.03;;;3.27;;
11135;SDS011;5622;50.840;4.948;2023-12-20T01:29:03;11.60;;;3.13;;
11135;SDS011;5622;50.840;4.948;2023-12-20T01:31:30;11.37;;;3.27;;
11135;SDS011;5622;50.840;4.948;2023-12-20T01:33:57;11.67;;;3.63;;
11135;SDS011;5622;50.840;4.948;2023-12-20T01:36:25;9.37;;;3.17;;
11135;SDS011;5622;50.840;4.948;2023-12-20T01:38:52;13.53;;;3.33;;
11135;SDS011;5622;50.840;4.948;2023-12-20T01:41:19;11.13;;;2.77;;
11135;SDS011;5622;50.840;4.948;2023-12-20T01:43:46;8.03;;;2.50;;
11135;SDS011;5622;50.840;4.948;2023-12-20T01:46:13;8.80;;;2.30;;
11135;SDS011;5622;50.840;4.948;2023-12-20T01:48:41;7.60;;;2.37;;
11135;SDS011;5622;50.840;4.948;2023-12-20T01:51:09;7.73;;;2.60;;
11135;SDS011;5622;50.840;4.948;2023-12-20T01:53:38;8.47;;;2.73;;
11135;SDS011;5622;50.840;4.948;2023-12-20T01:56:06;7.47;;;2.43;;
11135;SDS011;5622;50.840;4.948;2023-12-20T01:58:35;15.63;;;2.70;;
11135;SDS011;5622;50.840;4.948;2023-12-20T02:01:05;10.73;;;3.20;;
11135;SDS011;5622;50.840;4.948;2023-12-20T02:03:32;10.97;;;3.20;;
11135;SDS011;5622;50.840;4.948;2023-12-20T02:06:01;8.73;;;2.77;;
11135;SDS011;5622;50.840;4.948;2023-12-20T02:08:30;12.67;;;3.00;;
11135;SDS011;5622;50.840;4.948;2023-12-20T02:10:58;12.70;;;3.00;;
11135;SDS011;5622;50.840;4.948;2023-12-20T02:13:26;10.70;;;3.20;;
11135;SDS011;5622;50.840;4.948;2023-12-20T02:15:53;8.37;;;2.50;;
11135;SDS011;5622;50.840;4.948;2023-12-20T02:18:21;7.23;;;2.43;;
11135;SDS011;5622;50.840;4.948;2023-12-20T02:20:50;11.10;;;3.33;;
11135;SDS011;5622;50.840;4.948;2023-12-20T02:23:18;7.97;;;3.13;;
11135;SDS011;5622;50.840;4.948;2023-12-20T02:25:44;9.77;;;2.90;;
11135;SDS011;5622;50.840;4.948;2023-12-20T02:28:11;12.83;;;3.03;;
11135;SDS011;5622;50.840;4.948;2023-12-20T02:30:39;13.30;;;3.13;;
11135;SDS011;5622;50.840;4.948;2023-12-20T02:33:10;11.53;;;3.10;;
11135;SDS011;5622;50.840;4.948;2023-12-20T02:35:38;11.40;;;3.50;;
11135;SDS011;5622;50.840;4.948;2023-12-20T02:38:05;6.93;;;3.20;;
11135;SDS011;5622;50.840;4.948;2023-12-20T02:40:34;6.37;;;3.17;;
11135;SDS011;5622;50.840;4.948;2023-12-20T02:43:01;9.83;;;3.57;;
11135;SDS011;5622;50.840;4.948;2023-12-20T02:45:28;12.30;;;3.33;;
11135;SDS011;5622;50.840;4.948;2023-12-20T02:47:55;11.33;;;3.17;;
11135;SDS011;5622;50.840;4.948;2023-12-20T02:50:22;8.87;;;3.03;;
11135;SDS011;5622;50.840;4.948;2023-12-20T02:52:49;7.70;;;3.13;;
11135;SDS011;5622;50.840;4.948;2023-12-20T02:55:16;10.03;;;2.83;;
11135;SDS011;5622;50.840;4.948;2023-12-20T02:57:45;10.17;;;2.80;;
11135;SDS011;5622;50.840;4.948;2023-12-20T03:00:12;11.67;;;3.60;;
11135;SDS011;5622;50.840;4.948;2023-12-20T03:02:40;14.03;;;3.50;;
11135;SDS011;5622;50.840;4.948;2023-12-20T03:05:07;13.40;;;3.50;;
11135;SDS011;5622;50.840;4.948;2023-12-20T03:07:36;9.20;;;3.27;;
11135;SDS011;5622;50.840;4.948;2023-12-20T03:10:04;10.07;;;3.00;;
11135;SDS011;5622;50.840;4.948;2023-12-20T03:12:32;15.00;;;3.20;;
11135;SDS011;5622;50.840;4.948;2023-12-20T03:15:01;12.77;;;3.33;;
11135;SDS011;5622;50.840;4.948;2023-12-20T03:17:29;10.63;;;3.43;;
11135;SDS011;5622;50.840;4.948;2023-12-20T03:19:57;12.67;;;3.83;;
11135;SDS011;5622;50.840;4.948;2023-12-20T03:22:24;13.33;;;4.00;;
11135;SDS011;5622;50.840;4.948;2023-12-20T03:24:51;7.30;;;3.13;;
11135;SDS011;5622;50.840;4.948;2023-12-20T03:27:18;10.87;;;3.50;;
11135;SDS011;5622;50.840;4.948;2023-12-20T03:29:45;8.07;;;3.00;;
11135;SDS011;5622;50.840;4.948;2023-12-20T03:32:13;14.20;;;3.30;;
11135;SDS011;5622;50.840;4.948;2023-12-20T03:34:43;8.30;;;3.03;;
11135;SDS011;5622;50.840;4.948;2023-12-20T03:37:10;14.53;;;3.53;;
11135;SDS011;5622;50.840;4.948;2023-12-20T03:39:37;13.20;;;3.57;;
11135;SDS011;5622;50.840;4.948;2023-12-20T03:42:05;8.37;;;3.03;;
11135;SDS011;5622;50.840;4.948;2023-12-20T03:44:32;16.33;;;3.40;;
11135;SDS011;5622;50.840;4.948;2023-12-20T03:46:59;16.97;;;4.03;;
11135;SDS011;5622;50.840;4.948;2023-12-20T03:49:27;12.60;;;3.23;;
11135;SDS011;5622;50.840;4.948;2023-12-20T03:51:55;11.43;;;3.40;;
11135;SDS011;5622;50.840;4.948;2023-12-20T03:54:22;14.27;;;3.83;;
11135;SDS011;5622;50.840;4.948;2023-12-20T03:56:49;12.53;;;3.83;;
11135;SDS011;5622;50.840;4.948;2023-12-20T03:59:16;10.37;;;3.50;;
11135;SDS011;5622;50.840;4.948;2023-12-20T04:01:44;19.03;;;3.40;;
11135;SDS011;5622;50.840;4.948;2023-12-20T04:04:11;12.73;;;3.93;;
11135;SDS011;5622;50.840;4.948;2023-12-20T04:06:40;19.70;;;4.10;;
11135;SDS011;5622;50.840;4.948;2023-12-20T04:09:07;10.00;;;3.77;;
11135;SDS011;5622;50.840;4.948;2023-12-20T04:11:35;19.33;;;4.70;;
11135;SDS011;5622;50.840;4.948;2023-12-20T04:14:03;17.27;;;4.30;;
11135;SDS011;5622;50.840;4.948;2023-12-20T04:16:30;14.27;;;5.17;;
11135;SDS011;5622;50.840;4.948;2023-12-20T04:18:58;11.07;;;4.23;;
11135;SDS011;5622;50.840;4.948;2023-12-20T04:21:26;12.90;;;4.67;;
11135;SDS011;5622;50.840;4.948;2023-12-20T04:23:54;8.27;;;3.73;;
11135;SDS011;5622;50.840;4.948;2023-12-20T04:26:21;13.23;;;4.97;;
11135;SDS011;5622;50.840;4.948;2023-12-20T04:28:48;13.70;;;4.50;;
11135;SDS011;5622;50.840;4.948;2023-12-20T04:31:15;17.23;;;4.73;;
11135;SDS011;5622;50.840;4.948;2023-12-20T04:33:42;16.23;;;5.10;;
11135;SDS011;5622;50.840;4.948;2023-12-20T04:36:09;12.80;;;4.27;;
11135;SDS011;5622;50.840;4.948;2023-12-20T04:38:36;13.20;;;4.43;;
11135;SDS011;5622;50.840;4.948;2023-12-20T04:41:05;16.67;;;4.70;;
11135;SDS011;5622;50.840;4.948;2023-12-20T04:43:34;11.97;;;4.33;;
11135;SDS011;5622;50.840;4.948;2023-12-20T04:46:01;15.20;;;4.60;;
11135;SDS011;5622;50.840;4.948;2023-12-20T04:48:28;12.47;;;4.60;;
11135;SDS011;5622;50.840;4.948;2023-12-20T04:50:55;13.03;;;4.80;;
11135;SDS011;5622;50.840;4.948;2023-12-20T04:53:22;14.90;;;4.43;;
11135;SDS011;5622;50.840;4.948;2023-12-20T04:55:49;15.57;;;4.53;;
11135;SDS011;5622;50.840;4.948;2023-12-20T04:58:18;11.23;;;4.60;;
11135;SDS011;5622;50.840;4.948;2023-12-20T05:00:45;11.60;;;4.13;;
11135;SDS011;5622;50.840;4.948;2023-12-20T05:03:12;17.37;;;4.43;;
11135;SDS011;5622;50.840;4.948;2023-12-20T05:05:39;17.37;;;4.40;;
11135;SDS011;5622;50.840;4.948;2023-12-20T05:08:06;10.83;;;4.53;;
11135;SDS011;5622;50.840;4.948;2023-12-20T05:10:34;14.77;;;4.10;;
11135;SDS011;5622;50.840;4.948;2023-12-20T05:13:01;10.47;;;4.00;;
11135;SDS011;5622;50.840;4.948;2023-12-20T05:15:30;15.83;;;4.27;;
11135;SDS011;5622;50.840;4.948;2023-12-20T05:17:57;13.70;;;4.07;;
11135;SDS011;5622;50.840;4.948;2023-12-20T05:20:24;16.87;;;4.37;;
11135;SDS011;5622;50.840;4.948;2023-12-20T05:22:51;13.40;;;4.20;;
11135;SDS011;5622;50.840;4.948;2023-12-20T05:25:18;9.30;;;4.33;;
11135;SDS011;5622;50.840;4.948;2023-12-20T05:27:45;9.67;;;4.07;;
11135;SDS011;5622;50.840;4.948;2023-12-20T05:30:12;16.67;;;4.30;;
11135;SDS011;5622;50.840;4.948;2023-12-20T05:32:41;12.37;;;4.47;;
11135;SDS011;5622;50.840;4.948;2023-12-20T05:35:08;13.80;;;3.93;;
11135;SDS011;5622;50.840;4.948;2023-12-20T05:37:35;15.17;;;4.50;;
11135;SDS011;5622;50.840;4.948;2023-12-20T05:40:04;19.50;;;4.87;;
11135;SDS011;5622;50.840;4.948;2023-12-20T05:42:35;10.23;;;3.87;;
11135;SDS011;5622;50.840;4.948;2023-12-20T05:45:02;10.13;;;4.23;;
11135;SDS011;5622;50.840;4.948;2023-12-20T05:47:30;14.77;;;4.33;;
11135;SDS011;5622;50.840;4.948;2023-12-20T05:49:59;15.83;;;4.17;;
11135;SDS011;5622;50.840;4.948;2023-12-20T05:52:26;12.37;;;4.70;;
11135;SDS011;5622;50.840;4.948;2023-12-20T05:54:53;7.90;;;4.20;;
11135;SDS011;5622;50.840;4.948;2023-12-20T05:57:21;11.87;;;4.37;;
11135;SDS011;5622;50.840;4.948;2023-12-20T05:59:48;11.77;;;4.03;;
11135;SDS011;5622;50.840;4.948;2023-12-20T06:02:17;15.93;;;5.07;;
11135;SDS011;5622;50.840;4.948;2023-12-20T06:04:44;16.53;;;4.83;;
11135;SDS011;5622;50.840;4.948;2023-12-20T06:07:13;11.67;;;4.57;;
11135;SDS011;5622;50.840;4.948;2023-12-20T06:09:40;14.83;;;4.33;;
11135;SDS011;5622;50.840;4.948;2023-12-20T06:12:08;15.50;;;4.50;;
11135;SDS011;5622;50.840;4.948;2023-12-20T06:14:35;15.50;;;4.37;;
11135;SDS011;5622;50.840;4.948;2023-12-20T06:17:02;18.03;;;4.97;;
11135;SDS011;5622;50.840;4.948;2023-12-20T06:19:29;16.87;;;4.20;;
11135;SDS011;5622;50.840;4.948;2023-12-20T06:21:56;14.93;;;4.70;;
11135;SDS011;5622;50.840;4.948;2023-12-20T06:24:25;11.83;;;3.80;;
11135;SDS011;5622;50.840;4.948;2023-12-20T06:26:53;20.70;;;8.17;;
11135;SDS011;5622;50.840;4.948;2023-12-20T06:29:20;61.03;;;29.93;;
11135;SDS011;5622;50.840;4.948;2023-12-20T06:31:49;24.37;;;11.73;;
11135;SDS011;5622;50.840;4.948;2023-12-20T06:34:16;16.13;;;7.07;;
11135;SDS011;5622;50.840;4.948;2023-12-20T06:36:45;21.67;;;8.93;;
11135;SDS011;5622;50.840;4.948;2023-12-20T06:39:12;15.60;;;7.00;;
11135;SDS011;5622;50.840;4.948;2023-12-20T06:41:40;37.60;;;19.90;;
11135;SDS011;5622;50.840;4.948;2023-12-20T06:44:08;41.27;;;20.43;;
11135;SDS011;5622;50.840;4.948;2023-12-20T06:46:35;35.17;;;19.73;;
11135;SDS011;5622;50.840;4.948;2023-12-20T06:49:02;28.50;;;11.00;;
11135;SDS011;5622;50.840;4.948;2023-12-20T06:51:29;22.07;;;10.50;;
11135;SDS011;5622;50.840;4.948;2023-12-20T06:53:57;19.50;;;8.83;;
11135;SDS011;5622;50.840;4.948;2023-12-20T06:56:27;19.37;;;6.40;;
11135;SDS011;5622;50.840;4.948;2023-12-20T06:58:56;22.40;;;9.80;;
11135;SDS011;5622;50.840;4.948;2023-12-20T07:01:23;15.30;;;7.40;;
11135;SDS011;5622;50.840;4.948;2023-12-20T07:03:50;18.70;;;7.10;;
11135;SDS011;5622;50.840;4.948;2023-12-20T07:06:17;14.30;;;8.07;;
11135;SDS011;5622;50.840;4.948;2023-12-20T07:08:45;15.67;;;6.40;;
11135;SDS011;5622;50.840;4.948;2023-12-20T07:11:12;13.00;;;5.63;;
11135;SDS011;5622;50.840;4.948;2023-12-20T07:13:39;12.87;;;7.13;;
11135;SDS011;5622;50.840;4.948;2023-12-20T07:16:08;14.30;;;5.70;;
11135;SDS011;5622;50.840;4.948;2023-12-20T07:18:35;9.60;;;4.60;;
11135;SDS011;5622;50.840;4.948;2023-12-20T07:21:02;14.57;;;5.80;;
11135;SDS011;5622;50.840;4.948;2023-12-20T07:23:30;16.83;;;4.47;;
11135;SDS011;5622;50.840;4.948;2023-12-20T07:25:57;13.87;;;4.47;;
11135;SDS011;5622;50.840;4.948;2023-12-20T07:28:24;12.30;;;4.80;;
11135;SDS011;5622;50.840;4.948;2023-12-20T07:30:51;15.03;;;5.10;;
11135;SDS011;5622;50.840;4.948;2023-12-20T07:33:20;18.70;;;4.80;;
11135;SDS011;5622;50.840;4.948;2023-12-20T07:35:47;13.00;;;4.13;;
11135;SDS011;5622;50.840;4.948;2023-12-20T07:38:14;12.47;;;5.47;;
11135;SDS011;5622;50.840;4.948;2023-12-20T07:40:41;13.37;;;4.40;;
11135;SDS011;5622;50.840;4.948;2023-12-20T07:43:08;16.10;;;4.43;;
11135;SDS011;5622;50.840;4.948;2023-12-20T07:45:35;9.97;;;3.73;;
11135;SDS011;5622;50.840;4.948;2023-12-20T07:48:06;17.60;;;4.00;;
11135;SDS011;5622;50.840;4.948;2023-12-20T07:50:35;13.27;;;3.77;;
11135;SDS011;5622;50.840;4.948;2023-12-20T07:53:02;13.70;;;3.80;;
11135;SDS011;5622;50.840;4.948;2023-12-20T07:55:29;10.93;;;4.27;;
11135;SDS011;5622;50.840;4.948;2023-12-20T07:57:57;10.43;;;4.00;;
11135;SDS011;5622;50.840;4.948;2023-12-20T08:00:24;13.83;;;5.67;;
11135;SDS011;5622;50.840;4.948;2023-12-20T08:02:51;11.80;;;4.60;;
11135;SDS011;5622;50.840;4.948;2023-12-20T08:05:18;20.97;;;5.40;;
11135;SDS011;5622;50.840;4.948;2023-12-20T08:07:47;14.93;;;4.67;;
11135;SDS011;5622;50.840;4.948;2023-12-20T08:10:14;15.23;;;4.03;;
11135;SDS011;5622;50.840;4.948;2023-12-20T08:12:43;11.70;;;3.87;;
11135;SDS011;5622;50.840;4.948;2023-12-20T08:15:10;11.83;;;5.37;;
11135;SDS011;5622;50.840;4.948;2023-12-20T08:17:36;13.37;;;4.33;;
11135;SDS011;5622;50.840;4.948;2023-12-20T08:20:04;10.73;;;4.13;;
11135;SDS011;5622;50.840;4.948;2023-12-20T08:22:31;14.80;;;3.93;;
11135;SDS011;5622;50.840;4.948;2023-12-20T08:25:02;15.77;;;5.03;;
11135;SDS011;5622;50.840;4.948;2023-12-20T08:27:29;13.77;;;4.10;;
11135;SDS011;5622;50.840;4.948;2023-12-20T08:29:57;15.87;;;4.67;;
11135;SDS011;5622;50.840;4.948;2023-12-20T08:32:26;11.73;;;4.93;;
11135;SDS011;5622;50.840;4.948;2023-12-20T08:34:53;13.50;;;3.73;;
11135;SDS011;5622;50.840;4.948;2023-12-20T08:37:23;10.43;;;3.97;;
11135;SDS011;5622;50.840;4.948;2023-12-20T08:39:50;11.73;;;3.57;;
11135;SDS011;5622;50.840;4.948;2023-12-20T08:42:19;16.13;;;3.77;;
11135;SDS011;5622;50.840;4.948;2023-12-20T08:44:46;17.63;;;4.07;;
11135;SDS011;5622;50.840;4.948;2023-12-20T08:47:15;10.73;;;3.73;;
11135;SDS011;5622;50.840;4.948;2023-12-20T08:49:42;11.70;;;3.40;;
11135;SDS011;5622;50.840;4.948;2023-12-20T08:52:11;12.00;;;2.97;;
11135;SDS011;5622;50.840;4.948;2023-12-20T08:54:38;13.17;;;3.23;;
11135;SDS011;5622;50.840;4.948;2023-12-20T08:57:05;18.17;;;6.03;;
11135;SDS011;5622;50.840;4.948;2023-12-20T08:59:34;14.77;;;4.27;;
11135;SDS011;5622;50.840;4.948;2023-12-20T09:02:01;11.00;;;5.43;;
11135;SDS011;5622;50.840;4.948;2023-12-20T09:04:28;14.23;;;4.63;;
11135;SDS011;5622;50.840;4.948;2023-12-20T09:06:55;12.50;;;4.60;;
11135;SDS011;5622;50.840;4.948;2023-12-20T09:09:22;11.07;;;4.67;;
11135;SDS011;5622;50.840;4.948;2023-12-20T09:11:49;13.27;;;4.93;;
11135;SDS011;5622;50.840;4.948;2023-12-20T09:14:16;9.90;;;4.17;;
11135;SDS011;5622;50.840;4.948;2023-12-20T09:16:45;9.53;;;4.17;;
11135;SDS011;5622;50.840;4.948;2023-12-20T09:19:12;19.33;;;4.57;;
11135;SDS011;5622;50.840;4.948;2023-12-20T09:21:42;15.17;;;4.10;;
11135;SDS011;5622;50.840;4.948;2023-12-20T09:24:10;13.50;;;4.20;;
11135;SDS011;5622;50.840;4.948;2023-12-20T09:26:37;15.43;;;4.30;;
11135;SDS011;5622;50.840;4.948;2023-12-20T09:29:05;16.20;;;3.70;;
11135;SDS011;5622;50.840;4.948;2023-12-20T09:31:32;12.43;;;4.27;;
11135;SDS011;5622;50.840;4.948;2023-12-20T09:34:01;12.10;;;3.93;;
11135;SDS011;5622;50.840;4.948;2023-12-20T09:36:30;12.50;;;4.07;;
11135;SDS011;5622;50.840;4.948;2023-12-20T09:39:03;12.70;;;2.90;;
11135;SDS011;5622;50.840;4.948;2023-12-20T09:41:31;15.67;;;3.53;;
11135;SDS011;5622;50.840;4.948;2023-12-20T09:44:03;13.90;;;3.40;;
11135;SDS011;5622;50.840;4.948;2023-12-20T09:46:32;11.57;;;3.83;;
11135;SDS011;5622;50.840;4.948;2023-12-20T09:49:02;14.63;;;3.70;;
11135;SDS011;5622;50.840;4.948;2023-12-20T09:51:30;11.77;;;3.27;;
11135;SDS011;5622;50.840;4.948;2023-12-20T09:53:57;15.43;;;3.57;;
11135;SDS011;5622;50.840;4.948;2023-12-20T09:56:29;11.53;;;3.13;;
11135;SDS011;5622;50.840;4.948;2023-12-20T09:58:56;10.63;;;3.50;;
11135;SDS011;5622;50.840;4.948;2023-12-20T10:01:24;10.80;;;4.17;;
11135;SDS011;5622;50.840;4.948;2023-12-20T10:03:54;9.87;;;3.57;;
11135;SDS011;5622;50.840;4.948;2023-12-20T10:06:22;15.03;;;4.37;;
11135;SDS011;5622;50.840;4.948;2023-12-20T10:08:49;15.43;;;5.33;;
11135;SDS011;5622;50.840;4.948;2023-12-20T10:11:17;25.10;;;5.17;;
11135;SDS011;5622;50.840;4.948;2023-12-20T10:13:45;16.33;;;4.17;;
11135;SDS011;5622;50.840;4.948;2023-12-20T10:16:14;9.53;;;3.60;;
11135;SDS011;5622;50.840;4.948;2023-12-20T10:18:41;16.40;;;4.13;;
11135;SDS011;5622;50.840;4.948;2023-12-20T10:21:08;9.37;;;3.60;;
11135;SDS011;5622;50.840;4.948;2023-12-20T10:23:38;21.07;;;3.97;;
11135;SDS011;5622;50.840;4.948;2023-12-20T10:26:06;13.37;;;4.10;;
11135;SDS011;5622;50.840;4.948;2023-12-20T10:28:33;18.73;;;4.27;;
11135;SDS011;5622;50.840;4.948;2023-12-20T10:31:00;12.30;;;3.30;;
11135;SDS011;5622;50.840;4.948;2023-12-20T10:33:28;15.53;;;3.10;;
11135;SDS011;5622;50.840;4.948;2023-12-20T10:35:59;11.70;;;3.23;;
11135;SDS011;5622;50.840;4.948;2023-12-20T10:38:26;14.03;;;3.60;;
11135;SDS011;5622;50.840;4.948;2023-12-20T10:40:57;11.97;;;4.00;;
11135;SDS011;5622;50.840;4.948;2023-12-20T10:43:24;14.93;;;4.93;;
11135;SDS011;5622;50.840;4.948;2023-12-20T10:45:55;11.80;;;3.20;;
11135;SDS011;5622;50.840;4.948;2023-12-20T10:48:22;13.73;;;3.77;;
11135;SDS011;5622;50.840;4.948;2023-12-20T10:50:54;12.60;;;4.03;;
11135;SDS011;5622;50.840;4.948;2023-12-20T10:53:22;14.53;;;3.93;;
11135;SDS011;5622;50.840;4.948;2023-12-20T10:55:51;10.27;;;3.40;;
11135;SDS011;5622;50.840;4.948;2023-12-20T10:58:23;9.50;;;3.13;;
11135;SDS011;5622;50.840;4.948;2023-12-20T11:00:52;9.73;;;3.47;;
11135;SDS011;5622;50.840;4.948;2023-12-20T11:03:27;20.90;;;14.73;;
11135;SDS011;5622;50.840;4.948;2023-12-20T11:05:58;24.47;;;10.33;;
11135;SDS011;5622;50.840;4.948;2023-12-20T11:08:32;11.43;;;4.50;;
11135;SDS011;5622;50.840;4.948;2023-12-20T11:11:06;12.77;;;3.87;;
11135;SDS011;5622;50.840;4.948;2023-12-20T11:13:40;14.47;;;5.50;;
11135;SDS011;5622;50.840;4.948;2023-12-20T11:16:11;14.00;;;7.13;;
11135;SDS011;5622;50.840;4.948;2023-12-20T11:18:44;15.57;;;5.80;;
11135;SDS011;5622;50.840;4.948;2023-12-20T11:21:11;16.43;;;6.00;;
11135;SDS011;5622;50.840;4.948;2023-12-20T11:23:40;20.80;;;8.67;;
11135;SDS011;5622;50.840;4.948;2023-12-20T11:26:09;12.23;;;5.27;;
11135;SDS011;5622;50.840;4.948;2023-12-20T11:28:36;16.07;;;4.90;;
11135;SDS011;5622;50.840;4.948;2023-12-20T11:31:04;12.73;;;5.03;;
11135;SDS011;5622;50.840;4.948;2023-12-20T11:33:35;15.27;;;3.30;;
11135;SDS011;5622;50.840;4.948;2023-12-20T11:36:07;11.90;;;4.20;;
11135;SDS011;5622;50.840;4.948;2023-12-20T11:38:48;11.20;;;4.03;;
11135;SDS011;5622;50.840;4.948;2023-12-20T11:41:21;12.93;;;3.97;;
11135;SDS011;5622;50.840;4.948;2023-12-20T11:43:49;17.50;;;8.23;;
11135;SDS011;5622;50.840;4.948;2023-12-20T11:46:21;16.27;;;7.63;;
11135;SDS011;5622;50.840;4.948;2023-12-20T11:48:49;16.63;;;7.07;;
11135;SDS011;5622;50.840;4.948;2023-12-20T11:51:16;15.20;;;4.63;;
11135;SDS011;5622;50.840;4.948;2023-12-20T11:53:43;11.00;;;4.00;;
11135;SDS011;5622;50.840;4.948;2023-12-20T11:56:10;11.83;;;3.93;;
11135;SDS011;5622;50.840;4.948;2023-12-20T11:58:38;13.07;;;4.27;;
11135;SDS011;5622;50.840;4.948;2023-12-20T12:01:06;11.70;;;4.57;;
11135;SDS011;5622;50.840;4.948;2023-12-20T12:03:37;12.03;;;3.80;;
11135;SDS011;5622;50.840;4.948;2023-12-20T12:06:04;12.20;;;5.20;;
11135;SDS011;5622;50.840;4.948;2023-12-20T12:08:32;18.33;;;4.50;;
11135;SDS011;5622;50.840;4.948;2023-12-20T12:10:59;12.10;;;4.00;;
11135;SDS011;5622;50.840;4.948;2023-12-20T12:13:27;13.93;;;3.90;;
11135;SDS011;5622;50.840;4.948;2023-12-20T12:15:54;11.43;;;3.50;;
11135;SDS011;5622;50.840;4.948;2023-12-20T12:18:21;14.60;;;4.90;;
11135;SDS011;5622;50.840;4.948;2023-12-20T12:20:51;12.23;;;4.53;;
11135;SDS011;5622;50.840;4.948;2023-12-20T12:23:27;10.30;;;3.67;;
11135;SDS011;5622;50.840;4.948;2023-12-20T12:25:54;13.00;;;3.27;;
11135;SDS011;5622;50.840;4.948;2023-12-20T12:28:25;11.47;;;3.90;;
11135;SDS011;5622;50.840;4.948;2023-12-20T12:30:56;18.30;;;4.30;;
11135;SDS011;5622;50.840;4.948;2023-12-20T12:33:24;17.13;;;3.90;;
11135;SDS011;5622;50.840;4.948;2023-12-20T12:35:52;12.27;;;3.77;;
11135;SDS011;5622;50.840;4.948;2023-12-20T12:38:22;15.13;;;4.40;;
11135;SDS011;5622;50.840;4.948;2023-12-20T12:40:50;14.93;;;4.50;;
11135;SDS011;5622;50.840;4.948;2023-12-20T12:43:18;11.33;;;3.73;;
11135;SDS011;5622;50.840;4.948;2023-12-20T12:45:45;9.43;;;3.10;;
11135;SDS011;5622;50.840;4.948;2023-12-20T12:48:12;11.40;;;3.13;;
11135;SDS011;5622;50.840;4.948;2023-12-20T12:50:40;17.80;;;3.87;;
11135;SDS011;5622;50.840;4.948;2023-12-20T12:53:08;18.90;;;4.13;;
11135;SDS011;5622;50.840;4.948;2023-12-20T12:55:36;9.93;;;4.17;;
11135;SDS011;5622;50.840;4.948;2023-12-20T12:58:03;15.60;;;4.57;;
11135;SDS011;5622;50.840;4.948;2023-12-20T13:00:30;12.20;;;3.77;;
11135;SDS011;5622;50.840;4.948;2023-12-20T13:03:00;13.70;;;3.90;;
11135;SDS011;5622;50.840;4.948;2023-12-20T13:05:27;9.60;;;3.97;;
11135;SDS011;5622;50.840;4.948;2023-12-20T13:07:54;15.03;;;5.00;;
11135;SDS011;5622;50.840;4.948;2023-12-20T13:10:23;13.73;;;4.60;;
11135;SDS011;5622;50.840;4.948;2023-12-20T13:12:50;16.17;;;4.97;;
11135;SDS011;5622;50.840;4.948;2023-12-20T13:15:17;23.70;;;9.03;;
11135;SDS011;5622;50.840;4.948;2023-12-20T13:17:44;13.97;;;5.00;;
11135;SDS011;5622;50.840;4.948;2023-12-20T13:20:12;16.60;;;5.27;;
11135;SDS011;5622;50.840;4.948;2023-12-20T13:22:39;17.37;;;5.60;;
11135;SDS011;5622;50.840;4.948;2023-12-20T13:25:06;17.03;;;4.87;;
11135;SDS011;5622;50.840;4.948;2023-12-20T13:27:35;13.13;;;5.37;;
11135;SDS011;5622;50.840;4.948;2023-12-20T13:30:02;19.87;;;5.40;;
11135;SDS011;5622;50.840;4.948;2023-12-20T13:32:30;14.23;;;5.23;;
11135;SDS011;5622;50.840;4.948;2023-12-20T13:35:00;16.97;;;5.10;;
11135;SDS011;5622;50.840;4.948;2023-12-20T13:37:29;17.03;;;5.27;;
11135;SDS011;5622;50.840;4.948;2023-12-20T13:39:56;18.30;;;5.60;;
11135;SDS011;5622;50.840;4.948;2023-12-20T13:42:23;16.03;;;4.13;;
11135;SDS011;5622;50.840;4.948;2023-12-20T13:44:53;13.57;;;4.67;;
11135;SDS011;5622;50.840;4.948;2023-12-20T13:47:21;15.17;;;4.30;;
11135;SDS011;5622;50.840;4.948;2023-12-20T13:49:48;15.77;;;4.63;;
11135;SDS011;5622;50.840;4.948;2023-12-20T13:52:15;15.57;;;4.17;;
11135;SDS011;5622;50.840;4.948;2023-12-20T13:54:42;18.07;;;4.50;;
11135;SDS011;5622;50.840;4.948;2023-12-20T13:57:09;13.17;;;4.73;;
11135;SDS011;5622;50.840;4.948;2023-12-20T13:59:36;15.03;;;4.30;;
11135;SDS011;5622;50.840;4.948;2023-12-20T14:02:05;12.53;;;4.63;;
11135;SDS011;5622;50.840;4.948;2023-12-20T14:04:32;10.27;;;4.97;;
11135;SDS011;5622;50.840;4.948;2023-12-20T14:06:59;17.07;;;7.40;;
11135;SDS011;5622;50.840;4.948;2023-12-20T14:09:27;18.33;;;7.57;;
11135;SDS011;5622;50.840;4.948;2023-12-20T14:11:54;27.30;;;11.10;;
11135;SDS011;5622;50.840;4.948;2023-12-20T14:14:21;12.77;;;6.07;;
11135;SDS011;5622;50.840;4.948;2023-12-20T14:16:48;17.47;;;7.70;;
11135;SDS011;5622;50.840;4.948;2023-12-20T14:19:17;14.83;;;7.13;;
11135;SDS011;5622;50.840;4.948;2023-12-20T14:21:44;13.70;;;4.50;;
11135;SDS011;5622;50.840;4.948;2023-12-20T14:24:12;18.47;;;4.97;;
11135;SDS011;5622;50.840;4.948;2023-12-20T14:26:40;19.50;;;4.93;;
11135;SDS011;5622;50.840;4.948;2023-12-20T14:29:09;10.07;;;3.93;;
11135;SDS011;5622;50.840;4.948;2023-12-20T14:31:36;13.43;;;4.93;;
11135;SDS011;5622;50.840;4.948;2023-12-20T14:34:04;22.13;;;8.87;;
11135;SDS011;5622;50.840;4.948;2023-12-20T14:36:34;23.10;;;9.97;;
11135;SDS011;5622;50.840;4.948;2023-12-20T14:39:01;13.80;;;5.30;;
11135;SDS011;5622;50.840;4.948;2023-12-20T14:41:28;11.30;;;4.43;;
11135;SDS011;5622;50.840;4.948;2023-12-20T14:43:55;9.37;;;4.27;;
11135;SDS011;5622;50.840;4.948;2023-12-20T14:46:22;13.77;;;4.47;;
11135;SDS011;5622;50.840;4.948;2023-12-20T14:48:49;11.60;;;4.50;;
11135;SDS011;5622;50.840;4.948;2023-12-20T14:51:16;15.70;;;3.80;;
11135;SDS011;5622;50.840;4.948;2023-12-20T14:53:45;13.40;;;3.83;;